createdAt,value
2018-09-28T00:00:25.848Z,0.00
2018-09-28T00:01:25.835Z,0.00
2018-09-28T00:02:25.866Z,0.00
2018-09-28T00:03:25.805Z,0.00
2018-09-28T00:04:25.796Z,0.00
2018-09-28T00:05:25.791Z,0.00
2018-09-28T00:06:25.785Z,0.00
2018-09-28T00:07:25.814Z,0.00
2018-09-28T00:08:25.765Z,0.00
2018-09-28T00:09:25.743Z,0.00
2018-09-28T00:10:25.734Z,0.00
2018-09-28T00:11:25.748Z,0.00
2018-09-28T00:12:25.709Z,0.00
2018-09-28T00:13:25.722Z,0.00
2018-09-28T00:14:25.687Z,0.00
2018-09-28T00:15:25.688Z,0.00
2018-09-28T00:16:25.663Z,0.00
2018-09-28T00:17:25.654Z,0.00
2018-09-28T00:18:25.682Z,0.00
2018-09-28T00:19:25.635Z,0.00
2018-09-28T00:20:25.662Z,0.00
2018-09-28T00:21:25.610Z,0.00
2018-09-28T00:22:25.599Z,0.00
2018-09-28T00:23:25.614Z,0.00
2018-09-28T00:24:25.579Z,0.00
2018-09-28T00:25:25.566Z,0.00
2018-09-28T00:26:25.614Z,0.00
2018-09-28T00:27:25.545Z,0.00
2018-09-28T00:28:25.580Z,0.00
2018-09-28T00:29:25.540Z,0.00
2018-09-28T00:30:25.515Z,0.00
2018-09-28T00:31:25.500Z,0.00
2018-09-28T00:32:25.491Z,0.00
2018-09-28T00:33:25.480Z,0.00
2018-09-28T00:34:25.491Z,0.00
2018-09-28T00:35:25.469Z,0.00
2018-09-28T00:36:25.447Z,0.00
2018-09-28T00:37:25.442Z,0.00
2018-09-28T00:38:25.470Z,0.00
2018-09-28T00:39:25.447Z,0.00
2018-09-28T00:40:25.402Z,0.00
2018-09-28T00:41:25.413Z,0.00
2018-09-28T00:42:25.381Z,0.00
2018-09-28T00:43:25.373Z,0.00
2018-09-28T00:44:25.397Z,0.00
2018-09-28T00:45:25.365Z,0.00
2018-09-28T00:46:25.349Z,0.00
2018-09-28T00:47:25.328Z,0.00
2018-09-28T00:48:25.317Z,0.00
2018-09-28T00:49:25.318Z,0.00
2018-09-28T00:50:25.319Z,0.00
2018-09-28T00:51:25.281Z,0.00
2018-09-28T00:52:25.272Z,0.00
2018-09-28T00:53:25.260Z,0.00
2018-09-28T00:54:25.267Z,0.00
2018-09-28T00:55:25.275Z,0.00
2018-09-28T00:56:25.230Z,0.00
2018-09-28T00:57:25.233Z,0.00
2018-09-28T00:58:25.208Z,0.00
2018-09-28T00:59:25.199Z,0.00
2018-09-28T01:00:25.240Z,0.00
2018-09-28T01:01:25.176Z,0.00
2018-09-28T01:02:25.190Z,0.00
2018-09-28T01:03:25.155Z,0.00
2018-09-28T01:04:25.142Z,0.00
2018-09-28T01:05:25.171Z,0.00
2018-09-28T01:06:25.143Z,0.00
2018-09-28T01:07:25.120Z,0.00
2018-09-28T01:08:25.100Z,0.00
2018-09-28T01:09:25.087Z,0.00
2018-09-28T01:10:25.088Z,0.00
2018-09-28T01:11:25.098Z,0.00
2018-09-28T01:12:25.063Z,0.00
2018-09-28T01:13:25.045Z,0.00
2018-09-28T01:14:25.032Z,0.00
2018-09-28T01:15:25.025Z,0.00
2018-09-28T01:16:25.033Z,0.00
2018-09-28T01:17:25.015Z,0.00
2018-09-28T01:18:24.998Z,0.00
2018-09-28T01:19:24.981Z,0.00
2018-09-28T01:20:24.969Z,0.00
2018-09-28T01:21:24.987Z,0.00
2018-09-28T01:22:24.978Z,0.00
2018-09-28T01:23:24.935Z,0.00
2018-09-28T01:24:24.925Z,0.00
2018-09-28T01:25:24.925Z,0.00
2018-09-28T01:26:24.904Z,0.00
2018-09-28T01:27:24.941Z,0.00
2018-09-28T01:28:24.881Z,0.00
2018-09-28T01:29:24.870Z,0.00
2018-09-28T01:30:24.859Z,0.00
2018-09-28T01:31:24.866Z,0.00
2018-09-28T01:32:24.869Z,0.00
2018-09-28T01:33:24.826Z,0.00
2018-09-28T01:34:24.819Z,0.00
2018-09-28T01:35:24.805Z,0.00
2018-09-28T01:36:24.805Z,0.00
2018-09-28T01:37:24.809Z,0.00
2018-09-28T01:38:24.775Z,0.00
2018-09-28T01:39:24.769Z,0.00
2018-09-28T01:40:24.769Z,0.00
2018-09-28T01:41:24.745Z,0.00
2018-09-28T01:42:24.764Z,0.00
2018-09-28T01:43:24.718Z,0.00
2018-09-28T01:44:24.707Z,0.00
2018-09-28T01:45:24.697Z,0.00
2018-09-28T01:46:24.702Z,0.00
2018-09-28T01:47:24.672Z,0.00
2018-09-28T01:48:24.687Z,0.00
2018-09-28T01:49:24.696Z,0.00
2018-09-28T01:50:24.663Z,0.00
2018-09-28T01:51:24.631Z,0.00
2018-09-28T01:52:24.629Z,0.00
2018-09-28T01:53:24.650Z,0.00
2018-09-28T01:54:24.597Z,0.00
2018-09-28T01:55:24.589Z,0.00
2018-09-28T01:56:24.578Z,0.00
2018-09-28T01:57:24.563Z,0.00
2018-09-28T01:58:24.646Z,0.00
2018-09-28T01:59:24.551Z,0.00
2018-09-28T02:00:24.538Z,0.00
2018-09-28T02:01:24.532Z,0.00
2018-09-28T02:02:24.509Z,0.00
2018-09-28T02:03:24.502Z,0.00
2018-09-28T02:04:24.524Z,0.00
2018-09-28T02:05:24.478Z,0.00
2018-09-28T02:06:24.472Z,0.00
2018-09-28T02:07:24.486Z,0.00
2018-09-28T02:08:24.444Z,0.00
2018-09-28T02:09:24.459Z,0.00
2018-09-28T02:10:24.422Z,0.00
2018-09-28T02:11:24.456Z,0.00
2018-09-28T02:12:24.432Z,0.00
2018-09-28T02:13:24.392Z,0.00
2018-09-28T02:14:24.413Z,0.00
2018-09-28T02:15:24.411Z,0.00
2018-09-28T02:16:24.369Z,0.00
2018-09-28T02:17:24.354Z,0.00
2018-09-28T02:18:24.360Z,0.00
2018-09-28T02:19:24.339Z,0.00
2018-09-28T02:20:24.337Z,0.00
2018-09-28T02:21:24.310Z,0.00
2018-09-28T02:22:24.308Z,0.00
2018-09-28T02:23:24.295Z,0.00
2018-09-28T02:24:24.269Z,0.00
2018-09-28T02:25:24.304Z,0.00
2018-09-28T02:26:24.249Z,0.00
2018-09-28T02:27:24.237Z,0.00
2018-09-28T02:28:24.229Z,0.00
2018-09-28T02:29:24.218Z,0.00
2018-09-28T02:30:24.235Z,0.00
2018-09-28T02:31:24.212Z,0.00
2018-09-28T02:32:24.183Z,0.00
2018-09-28T02:33:24.178Z,0.00
2018-09-28T02:34:24.164Z,0.00
2018-09-28T02:35:24.179Z,0.00
2018-09-28T02:36:24.139Z,0.00
2018-09-28T02:37:24.137Z,0.00
2018-09-28T02:38:24.125Z,0.00
2018-09-28T02:39:24.109Z,0.00
2018-09-28T02:40:24.124Z,0.00
2018-09-28T02:41:24.087Z,0.00
2018-09-28T02:42:24.076Z,0.00
2018-09-28T02:43:24.083Z,0.00
2018-09-28T02:44:24.055Z,0.00
2018-09-28T02:45:24.083Z,0.00
2018-09-28T02:46:24.036Z,0.00
2018-09-28T02:47:24.030Z,0.00
2018-09-28T02:48:24.009Z,0.00
2018-09-28T02:49:24.006Z,0.00
2018-09-28T02:50:24.021Z,0.00
2018-09-28T02:51:23.996Z,0.00
2018-09-28T02:52:23.979Z,0.00
2018-09-28T02:53:23.962Z,0.00
2018-09-28T02:54:23.953Z,0.00
2018-09-28T02:55:23.933Z,0.00
2018-09-28T02:56:23.953Z,0.00
2018-09-28T02:57:23.913Z,0.00
2018-09-28T02:58:23.901Z,0.00
2018-09-28T02:59:23.898Z,0.00
2018-09-28T03:00:23.880Z,0.00
2018-09-28T03:01:23.894Z,0.00
2018-09-28T03:02:23.864Z,0.00
2018-09-28T03:03:23.853Z,0.00
2018-09-28T03:04:23.848Z,0.00
2018-09-28T03:05:23.824Z,0.00
2018-09-28T03:06:23.944Z,0.00
2018-09-28T03:07:23.819Z,0.00
2018-09-28T03:08:23.793Z,0.00
2018-09-28T03:09:23.786Z,0.00
2018-09-28T03:10:23.803Z,0.00
2018-09-28T03:11:24.610Z,0.00
2018-09-28T03:12:23.758Z,0.00
2018-09-28T03:13:23.742Z,0.00
2018-09-28T03:14:23.734Z,0.00
2018-09-28T03:15:23.725Z,0.00
2018-09-28T03:16:23.728Z,0.00
2018-09-28T03:17:23.775Z,0.00
2018-09-28T03:18:23.685Z,0.00
2018-09-28T03:19:23.680Z,0.00
2018-09-28T03:20:23.672Z,0.00
2018-09-28T03:21:23.655Z,0.00
2018-09-28T03:22:23.743Z,0.00
2018-09-28T03:23:23.635Z,0.00
2018-09-28T03:24:23.622Z,0.00
2018-09-28T03:25:23.621Z,0.00
2018-09-28T03:26:23.603Z,0.00
2018-09-28T03:27:23.749Z,0.00
2018-09-28T03:28:23.576Z,0.00
2018-09-28T03:29:23.569Z,0.00
2018-09-28T03:30:23.555Z,0.00
2018-09-28T03:31:23.567Z,0.00
2018-09-28T03:32:23.575Z,0.00
2018-09-28T03:33:23.526Z,0.00
2018-09-28T03:34:23.513Z,0.00
2018-09-28T03:35:23.503Z,0.00
2018-09-28T03:36:23.491Z,0.00
2018-09-28T03:37:23.518Z,0.00
2018-09-28T03:38:23.469Z,0.00
2018-09-28T03:39:23.458Z,0.00
2018-09-28T03:40:23.462Z,0.00
2018-09-28T03:41:23.437Z,0.00
2018-09-28T03:42:23.453Z,0.00
2018-09-28T03:43:23.430Z,0.00
2018-09-28T03:44:23.410Z,0.00
2018-09-28T03:45:23.417Z,0.00
2018-09-28T03:46:23.382Z,0.00
2018-09-28T03:47:23.402Z,0.00
2018-09-28T03:48:23.363Z,0.00
2018-09-28T03:49:23.351Z,0.00
2018-09-28T03:50:23.344Z,0.00
2018-09-28T03:51:23.337Z,0.00
2018-09-28T03:52:23.351Z,0.00
2018-09-28T03:53:23.311Z,0.00
2018-09-28T03:54:23.297Z,0.00
2018-09-28T03:55:23.286Z,0.00
2018-09-28T03:56:23.282Z,0.00
2018-09-28T03:57:23.294Z,0.00
2018-09-28T03:58:23.269Z,0.00
2018-09-28T03:59:23.247Z,0.00
2018-09-28T04:00:23.260Z,0.00
2018-09-28T04:01:23.220Z,0.00
2018-09-28T04:02:23.241Z,0.00
2018-09-28T04:03:23.199Z,0.00
2018-09-28T04:04:23.187Z,0.00
2018-09-28T04:05:23.182Z,0.00
2018-09-28T04:06:23.189Z,0.00
2018-09-28T04:07:23.186Z,0.00
2018-09-28T04:08:23.149Z,0.00
2018-09-28T04:09:23.134Z,0.00
2018-09-28T04:10:23.129Z,0.00
2018-09-28T04:11:23.113Z,0.00
2018-09-28T04:12:23.124Z,0.00
2018-09-28T04:13:23.097Z,0.00
2018-09-28T04:14:23.081Z,0.00
2018-09-28T04:15:23.083Z,0.00
2018-09-28T04:16:23.058Z,0.00
2018-09-28T04:17:23.080Z,0.00
2018-09-28T04:18:23.039Z,0.00
2018-09-28T04:19:23.035Z,0.00
2018-09-28T04:20:23.024Z,0.00
2018-09-28T04:21:23.025Z,0.00
2018-09-28T04:22:23.029Z,0.00
2018-09-28T04:23:22.986Z,0.00
2018-09-28T04:24:22.980Z,0.00
2018-09-28T04:25:22.963Z,0.00
2018-09-28T04:26:22.961Z,0.00
2018-09-28T04:27:22.974Z,0.00
2018-09-28T04:28:22.935Z,0.00
2018-09-28T04:29:22.929Z,0.00
2018-09-28T04:30:22.906Z,0.00
2018-09-28T04:31:22.898Z,0.00
2018-09-28T04:32:22.915Z,0.00
2018-09-28T04:33:22.876Z,0.00
2018-09-28T04:34:22.864Z,0.00
2018-09-28T04:35:22.886Z,0.00
2018-09-28T04:36:22.847Z,0.00
2018-09-28T04:37:22.833Z,0.00
2018-09-28T04:38:22.853Z,0.00
2018-09-28T04:39:22.817Z,0.00
2018-09-28T04:40:22.800Z,0.00
2018-09-28T04:41:22.795Z,0.00
2018-09-28T04:42:22.791Z,0.00
2018-09-28T04:43:22.801Z,0.00
2018-09-28T04:44:22.776Z,0.00
2018-09-28T04:45:22.810Z,0.00
2018-09-28T04:46:22.749Z,0.00
2018-09-28T04:47:22.726Z,0.00
2018-09-28T04:48:22.741Z,0.00
2018-09-28T04:49:22.729Z,0.00
2018-09-28T04:50:22.694Z,0.00
2018-09-28T04:51:22.687Z,0.00
2018-09-28T04:52:22.672Z,0.00
2018-09-28T04:53:22.695Z,0.00
2018-09-28T04:54:22.682Z,4.00
2018-09-28T04:55:22.645Z,0.00
2018-09-28T04:56:22.629Z,0.00
2018-09-28T04:57:22.632Z,4.00
2018-09-28T04:58:22.618Z,0.00
2018-09-28T04:59:22.631Z,4.00
2018-09-28T05:00:22.602Z,4.00
2018-09-28T05:01:22.611Z,8.00
2018-09-28T05:02:22.565Z,8.00
2018-09-28T05:03:22.557Z,8.00
2018-09-28T05:04:22.564Z,12.00
2018-09-28T05:05:22.583Z,12.00
2018-09-28T05:06:22.524Z,16.00
2018-09-28T05:07:22.512Z,20.00
2018-09-28T05:08:22.508Z,20.00
2018-09-28T05:09:22.548Z,24.00
2018-09-28T05:10:22.502Z,28.00
2018-09-28T05:11:22.469Z,32.00
2018-09-28T05:12:22.475Z,40.00
2018-09-28T05:13:22.446Z,44.00
2018-09-28T05:14:22.471Z,52.00
2018-09-28T05:15:22.456Z,60.00
2018-09-28T05:16:22.414Z,72.00
2018-09-28T05:17:22.410Z,80.00
2018-09-28T05:18:22.392Z,92.00
2018-09-28T05:19:22.387Z,104.00
2018-09-28T05:20:22.405Z,120.00
2018-09-28T05:21:22.359Z,132.00
2018-09-28T05:22:22.360Z,144.00
2018-09-28T05:23:22.360Z,156.00
2018-09-28T05:24:22.330Z,172.00
2018-09-28T05:25:22.387Z,192.00
2018-09-28T05:26:22.376Z,216.00
2018-09-28T05:27:22.295Z,240.00
2018-09-28T05:28:22.287Z,260.00
2018-09-28T05:29:22.273Z,276.00
2018-09-28T05:30:22.268Z,304.00
2018-09-28T05:31:22.495Z,328.00
2018-09-28T05:32:22.474Z,368.00
2018-09-28T05:33:22.231Z,412.00
2018-09-28T05:34:22.221Z,464.00
2018-09-28T05:35:22.209Z,516.00
2018-09-28T05:36:22.234Z,564.00
2018-09-28T05:37:22.242Z,612.00
2018-09-28T05:38:22.183Z,652.00
2018-09-28T05:39:22.189Z,688.00
2018-09-28T05:40:22.156Z,716.00
2018-09-28T05:41:22.147Z,744.00
2018-09-28T05:42:22.161Z,772.00
2018-09-28T05:43:22.130Z,816.00
2018-09-28T05:44:22.113Z,856.00
2018-09-28T05:45:22.113Z,900.00
2018-09-28T05:46:22.126Z,936.00
2018-09-28T05:47:22.103Z,968.00
2018-09-28T05:48:22.070Z,1004.00
2018-09-28T05:49:22.059Z,1040.00
2018-09-28T05:50:22.051Z,1076.00
2018-09-28T05:51:22.075Z,1116.00
2018-09-28T05:52:22.068Z,1156.00
2018-09-28T05:53:22.023Z,1192.00
2018-09-28T05:54:22.008Z,1224.00
2018-09-28T05:55:22.015Z,1256.00
2018-09-28T05:56:21.985Z,1272.00
2018-09-28T05:57:22.002Z,1260.00
2018-09-28T05:58:22.024Z,1256.00
2018-09-28T05:59:21.977Z,1296.00
2018-09-28T06:00:21.950Z,1348.00
2018-09-28T06:01:21.953Z,1412.00
2018-09-28T06:02:21.921Z,1480.00
2018-09-28T06:03:21.930Z,1496.00
2018-09-28T06:04:21.948Z,1456.00
2018-09-28T06:05:21.905Z,1476.00
2018-09-28T06:06:21.881Z,1476.00
2018-09-28T06:07:21.936Z,1432.00
2018-09-28T06:08:21.879Z,1400.00
2018-09-28T06:09:21.848Z,1392.00
2018-09-28T06:10:21.845Z,1396.00
2018-09-28T06:11:21.834Z,1376.00
2018-09-28T06:12:21.815Z,1392.00
2018-09-28T06:13:21.854Z,1412.00
2018-09-28T06:14:21.812Z,1452.00
2018-09-28T06:15:21.797Z,1484.00
2018-09-28T06:16:21.775Z,1464.00
2018-09-28T06:17:21.768Z,1452.00
2018-09-28T06:18:21.766Z,1452.00
2018-09-28T06:19:21.793Z,1524.00
2018-09-28T06:20:21.763Z,1632.00
2018-09-28T06:21:21.720Z,1732.00
2018-09-28T06:22:21.708Z,1880.00
2018-09-28T06:23:21.711Z,1908.00
2018-09-28T06:24:21.708Z,1936.00
2018-09-28T06:25:21.673Z,2024.00
2018-09-28T06:26:21.661Z,2184.00
2018-09-28T06:27:21.652Z,2380.00
2018-09-28T06:28:21.646Z,2668.00
2018-09-28T06:29:21.673Z,2956.00
2018-09-28T06:30:21.628Z,3212.00
2018-09-28T06:31:21.636Z,3348.00
2018-09-28T06:32:21.596Z,3356.00
2018-09-28T06:33:21.608Z,3300.00
2018-09-28T06:34:21.597Z,3172.00
2018-09-28T06:35:21.573Z,3332.00
2018-09-28T06:36:21.679Z,3548.00
2018-09-28T06:37:21.548Z,3528.00
2018-09-28T06:38:21.532Z,3496.00
2018-09-28T06:39:21.595Z,3456.00
2018-09-28T06:40:21.507Z,3344.00
2018-09-28T06:41:21.516Z,3352.00
2018-09-28T06:42:21.509Z,3316.00
2018-09-28T06:43:21.478Z,3276.00
2018-09-28T06:44:21.543Z,3224.00
2018-09-28T06:45:21.488Z,3148.00
2018-09-28T06:46:21.444Z,3084.00
2018-09-28T06:47:21.464Z,3068.00
2018-09-28T06:48:21.444Z,3092.00
2018-09-28T06:49:21.415Z,3164.00
2018-09-28T06:50:21.426Z,3184.00
2018-09-28T06:51:21.459Z,3148.00
2018-09-28T06:52:21.385Z,3336.00
2018-09-28T06:53:21.374Z,3392.00
2018-09-28T06:54:21.369Z,3428.00
2018-09-28T06:55:21.376Z,3440.00
2018-09-28T06:56:21.341Z,3444.00
2018-09-28T06:57:21.330Z,3496.00
2018-09-28T06:58:21.416Z,3552.00
2018-09-28T06:59:21.301Z,3604.00
2018-09-28T07:00:21.393Z,3604.00
2018-09-28T07:01:21.282Z,3660.00
2018-09-28T07:02:21.308Z,3772.00
2018-09-28T07:03:21.260Z,3812.00
2018-09-28T07:04:21.250Z,3796.00
2018-09-28T07:05:21.247Z,3708.00
2018-09-28T07:06:21.361Z,4048.00
2018-09-28T07:07:21.217Z,4584.00
2018-09-28T07:08:21.214Z,4712.00
2018-09-28T07:09:21.225Z,5476.00
2018-09-28T07:10:21.180Z,7084.00
2018-09-28T07:11:21.204Z,8512.00
2018-09-28T07:12:21.191Z,9532.00
2018-09-28T07:13:21.233Z,10112.00
2018-09-28T07:14:21.140Z,10204.00
2018-09-28T07:15:21.155Z,9008.00
2018-09-28T07:16:21.220Z,8088.00
2018-09-28T07:17:21.118Z,7352.00
2018-09-28T07:18:21.169Z,6644.00
2018-09-28T07:19:21.092Z,6224.00
2018-09-28T07:20:21.084Z,6064.00
2018-09-28T07:21:21.065Z,6176.00
2018-09-28T07:22:21.082Z,6164.00
2018-09-28T07:23:21.042Z,6072.00
2018-09-28T07:24:21.069Z,6172.00
2018-09-28T07:25:21.033Z,6380.00
2018-09-28T07:26:21.007Z,6292.00
2018-09-28T07:27:21.035Z,5812.00
2018-09-28T07:28:20.990Z,5152.00
2018-09-28T07:29:20.976Z,4784.00
2018-09-28T07:30:21.020Z,4760.00
2018-09-28T07:31:20.958Z,4708.00
2018-09-28T07:32:20.971Z,4996.00
2018-09-28T07:33:20.940Z,5956.00
2018-09-28T07:34:20.928Z,6528.00
2018-09-28T07:35:20.938Z,6800.00
2018-09-28T07:36:21.003Z,7068.00
2018-09-28T07:37:20.908Z,7512.00
2018-09-28T07:38:20.905Z,7572.00
2018-09-28T07:39:20.866Z,7420.00
2018-09-28T07:40:20.866Z,7652.00
2018-09-28T07:41:20.870Z,8012.00
2018-09-28T07:42:20.861Z,8004.00
2018-09-28T07:43:20.852Z,7340.00
2018-09-28T07:44:20.844Z,6452.00
2018-09-28T07:45:20.802Z,5944.00
2018-09-28T07:46:20.793Z,5608.00
2018-09-28T07:47:20.783Z,5276.00
2018-09-28T07:48:20.834Z,5364.00
2018-09-28T07:49:20.766Z,6100.00
2018-09-28T07:50:20.750Z,6864.00
2018-09-28T07:51:20.736Z,7512.00
2018-09-28T07:52:20.726Z,7292.00
2018-09-28T07:53:20.760Z,6100.00
2018-09-28T07:54:20.708Z,6192.00
2018-09-28T07:55:20.738Z,6540.00
2018-09-28T07:56:20.682Z,7280.00
2018-09-28T07:57:20.694Z,7756.00
2018-09-28T07:58:20.705Z,7020.00
2018-09-28T07:59:20.649Z,6716.00
2018-09-28T08:00:20.639Z,6600.00
2018-09-28T08:01:20.629Z,6516.00
2018-09-28T08:02:20.615Z,6560.00
2018-09-28T08:03:20.734Z,6648.00
2018-09-28T08:04:20.648Z,6828.00
2018-09-28T08:05:20.587Z,7220.00
2018-09-28T08:06:20.579Z,7556.00
2018-09-28T08:07:20.587Z,7436.00
2018-09-28T08:08:20.561Z,6492.00
2018-09-28T08:09:20.589Z,5688.00
2018-09-28T08:10:20.531Z,5932.00
2018-09-28T08:11:20.517Z,6164.00
2018-09-28T08:12:20.507Z,5760.00
2018-09-28T08:13:20.505Z,5528.00
2018-09-28T08:14:20.528Z,5668.00
2018-09-28T08:15:20.473Z,5668.00
2018-09-28T08:16:20.463Z,5992.00
2018-09-28T08:17:20.452Z,6364.00
2018-09-28T08:18:20.471Z,6584.00
2018-09-28T08:19:20.459Z,6828.00
2018-09-28T08:20:20.420Z,7136.00
2018-09-28T08:21:20.424Z,7008.00
2018-09-28T08:22:20.399Z,6916.00
2018-09-28T08:23:20.404Z,7040.00
2018-09-28T08:24:20.409Z,6720.00
2018-09-28T08:25:20.365Z,6152.00
2018-09-28T08:26:20.394Z,5940.00
2018-09-28T08:27:20.371Z,6176.00
2018-09-28T08:28:20.335Z,6616.00
2018-09-28T08:29:20.372Z,7104.00
2018-09-28T08:30:20.340Z,7408.00
2018-09-28T08:31:20.301Z,7412.00
2018-09-28T08:32:20.315Z,7396.00
2018-09-28T08:33:20.283Z,7428.00
2018-09-28T08:34:20.274Z,7196.00
2018-09-28T08:35:20.295Z,6664.00
2018-09-28T08:36:20.282Z,6540.00
2018-09-28T08:37:20.239Z,7120.00
2018-09-28T08:38:20.225Z,7680.00
2018-09-28T08:39:20.221Z,7608.00
2018-09-28T08:40:20.245Z,7128.00
2018-09-28T08:41:20.193Z,6764.00
2018-09-28T08:42:20.184Z,6540.00
2018-09-28T08:43:20.178Z,6056.00
2018-09-28T08:44:20.166Z,5484.00
2018-09-28T08:45:20.202Z,4992.00
2018-09-28T08:46:20.139Z,4560.00
2018-09-28T08:47:20.134Z,4164.00
2018-09-28T08:48:20.127Z,3908.00
2018-09-28T08:49:20.299Z,3840.00
2018-09-28T08:50:20.130Z,3796.00
2018-09-28T08:51:20.104Z,3712.00
2018-09-28T08:52:20.078Z,3680.00
2018-09-28T08:53:20.063Z,3732.00
2018-09-28T08:54:20.052Z,3832.00
2018-09-28T08:55:20.075Z,3928.00
2018-09-28T08:56:20.049Z,3964.00
2018-09-28T08:57:20.032Z,3992.00
2018-09-28T08:58:20.041Z,3936.00
2018-09-28T08:59:20.000Z,3744.00
2018-09-28T09:00:20.023Z,3620.00
2018-09-28T09:01:19.979Z,3716.00
2018-09-28T09:02:20.004Z,4040.00
2018-09-28T09:03:19.960Z,4320.00
2018-09-28T09:04:19.944Z,4144.00
2018-09-28T09:05:19.964Z,3600.00
2018-09-28T09:06:19.944Z,3252.00
2018-09-28T09:07:19.923Z,3392.00
2018-09-28T09:08:19.904Z,3748.00
2018-09-28T09:09:19.901Z,4060.00
2018-09-28T09:10:19.879Z,4212.00
2018-09-28T09:11:19.893Z,4116.00
2018-09-28T09:12:19.893Z,3748.00
2018-09-28T09:13:19.853Z,3308.00
2018-09-28T09:14:19.840Z,3108.00
2018-09-28T09:15:19.834Z,3152.00
2018-09-28T09:16:19.875Z,3116.00
2018-09-28T09:17:19.816Z,3064.00
2018-09-28T09:18:19.853Z,2948.00
2018-09-28T09:19:19.795Z,2684.00
2018-09-28T09:20:19.771Z,2348.00
2018-09-28T09:21:19.792Z,2140.00
2018-09-28T09:22:19.760Z,2180.00
2018-09-28T09:23:19.740Z,2248.00
2018-09-28T09:24:19.731Z,2308.00
2018-09-28T09:25:19.718Z,2508.00
2018-09-28T09:26:19.711Z,2752.00
2018-09-28T09:27:19.727Z,3060.00
2018-09-28T09:28:19.689Z,3428.00
2018-09-28T09:29:19.675Z,3600.00
2018-09-28T09:30:19.673Z,3380.00
2018-09-28T09:31:19.820Z,3012.00
2018-09-28T09:32:19.724Z,2856.00
2018-09-28T09:33:19.636Z,2764.00
2018-09-28T09:34:19.628Z,2404.00
2018-09-28T09:35:19.628Z,2540.00
2018-09-28T09:36:19.639Z,2508.00
2018-09-28T09:37:19.618Z,2644.00
2018-09-28T09:38:19.607Z,3120.00
2018-09-28T09:39:19.589Z,3164.00
2018-09-28T09:40:19.568Z,3292.00
2018-09-28T09:41:19.546Z,3788.00
2018-09-28T09:42:19.562Z,4396.00
2018-09-28T09:43:19.540Z,4280.00
2018-09-28T09:44:19.514Z,4448.00
2018-09-28T09:45:19.511Z,4036.00
2018-09-28T09:46:19.490Z,3580.00
2018-09-28T09:47:19.505Z,3968.00
2018-09-28T09:48:19.513Z,3508.00
2018-09-28T09:49:19.497Z,3304.00
2018-09-28T09:50:19.449Z,3840.00
2018-09-28T09:51:19.436Z,3768.00
2018-09-28T09:52:19.462Z,3800.00
2018-09-28T09:53:19.414Z,3204.00
2018-09-28T09:54:19.423Z,3496.00
2018-09-28T09:55:19.434Z,3712.00
2018-09-28T09:56:19.384Z,3264.00
2018-09-28T09:57:19.409Z,3104.00
2018-09-28T09:58:19.359Z,3204.00
2018-09-28T09:59:19.358Z,3020.00
2018-09-28T10:00:19.358Z,2808.00
2018-09-28T10:01:19.334Z,2564.00
2018-09-28T10:02:19.316Z,2468.00
2018-09-28T10:03:19.330Z,2108.00
2018-09-28T10:04:19.325Z,1952.00
2018-09-28T10:05:19.284Z,2092.00
2018-09-28T10:06:19.338Z,3040.00
2018-09-28T10:07:19.304Z,3184.00
2018-09-28T10:08:19.286Z,2908.00
2018-09-28T10:09:19.245Z,2752.00
2018-09-28T10:10:19.251Z,2528.00
2018-09-28T10:11:19.226Z,2928.00
2018-09-28T10:12:19.234Z,3200.00
2018-09-28T10:13:19.234Z,2912.00
2018-09-28T10:14:19.246Z,3316.00
2018-09-28T10:15:19.185Z,3496.00
2018-09-28T10:16:19.166Z,3932.00
2018-09-28T10:17:19.152Z,4204.00
2018-09-28T10:18:19.141Z,3128.00
2018-09-28T10:19:19.164Z,2720.00
2018-09-28T10:20:19.287Z,2484.00
2018-09-28T10:21:19.149Z,2420.00
2018-09-28T10:22:19.173Z,3068.00
2018-09-28T10:23:19.092Z,5220.00
2018-09-28T10:24:19.103Z,4348.00
2018-09-28T10:25:19.066Z,3588.00
2018-09-28T10:26:19.062Z,4072.00
2018-09-28T10:27:19.085Z,4276.00
2018-09-28T10:28:19.133Z,3216.00
2018-09-28T10:29:19.048Z,3220.00
2018-09-28T10:30:19.010Z,2876.00
2018-09-28T10:31:19.009Z,2348.00
2018-09-28T10:32:19.003Z,2692.00
2018-09-28T10:33:18.978Z,2788.00
2018-09-28T10:34:19.192Z,2988.00
2018-09-28T10:35:18.956Z,3424.00
2018-09-28T10:36:18.949Z,3264.00
2018-09-28T10:37:18.932Z,3372.00
2018-09-28T10:38:18.922Z,3656.00
2018-09-28T10:39:18.988Z,3636.00
2018-09-28T10:40:19.064Z,3424.00
2018-09-28T10:41:20.517Z,4088.00
2018-09-28T10:42:18.898Z,4948.00
2018-09-28T10:43:18.871Z,5812.00
2018-09-28T10:44:18.858Z,5796.00
2018-09-28T10:45:18.893Z,5596.00
2018-09-28T10:46:18.846Z,3992.00
2018-09-28T10:47:18.840Z,3508.00
2018-09-28T10:48:18.823Z,3436.00
2018-09-28T10:49:18.807Z,3216.00
2018-09-28T10:50:18.793Z,2996.00
2018-09-28T10:51:18.889Z,3552.00
2018-09-28T10:52:19.089Z,3712.00
2018-09-28T10:53:18.763Z,3036.00
2018-09-28T10:54:18.761Z,2652.00
2018-09-28T10:55:18.803Z,2072.00
2018-09-28T10:56:18.736Z,1836.00
2018-09-28T10:57:18.740Z,1544.00
2018-09-28T10:58:18.778Z,1564.00
2018-09-28T10:59:18.694Z,1656.00
2018-09-28T11:00:18.742Z,1820.00
2018-09-28T11:01:18.672Z,2000.00
2018-09-28T11:02:18.674Z,1820.00
2018-09-28T11:03:18.676Z,1732.00
2018-09-28T11:04:18.714Z,1712.00
2018-09-28T11:05:18.629Z,1980.00
2018-09-28T11:06:18.690Z,2052.00
2018-09-28T11:07:18.608Z,2156.00
2018-09-28T11:08:18.648Z,1832.00
2018-09-28T11:09:18.607Z,1948.00
2018-09-28T11:10:18.605Z,2268.00
2018-09-28T11:11:18.584Z,2380.00
2018-09-28T11:12:18.551Z,2784.00
2018-09-28T11:13:18.545Z,3496.00
2018-09-28T11:14:18.528Z,3756.00
2018-09-28T11:15:18.531Z,3348.00
2018-09-28T11:16:18.531Z,2672.00
2018-09-28T11:17:18.496Z,1956.00
2018-09-28T11:18:18.485Z,1724.00
2018-09-28T11:19:18.474Z,1780.00
2018-09-28T11:20:18.467Z,1972.00
2018-09-28T11:21:18.515Z,2460.00
2018-09-28T11:22:18.442Z,2468.00
2018-09-28T11:23:18.430Z,3136.00
2018-09-28T11:24:18.419Z,5148.00
2018-09-28T11:25:18.407Z,3224.00
2018-09-28T11:26:18.458Z,2816.00
2018-09-28T11:27:18.494Z,3148.00
2018-09-28T11:28:18.375Z,2520.00
2018-09-28T11:29:18.369Z,2256.00
2018-09-28T11:30:18.356Z,2348.00
2018-09-28T11:31:18.375Z,2604.00
2018-09-28T11:32:18.342Z,2332.00
2018-09-28T11:33:18.395Z,1784.00
2018-09-28T11:34:18.316Z,1856.00
2018-09-28T11:35:18.319Z,2144.00
2018-09-28T11:36:18.287Z,2324.00
2018-09-28T11:37:18.298Z,2656.00
2018-09-28T11:38:18.339Z,4144.00
2018-09-28T11:39:18.346Z,4252.00
2018-09-28T11:40:18.243Z,3000.00
2018-09-28T11:41:18.240Z,3264.00
2018-09-28T11:42:18.246Z,3932.00
2018-09-28T11:43:18.325Z,4008.00
2018-09-28T11:44:18.259Z,3828.00
2018-09-28T11:45:18.279Z,3696.00
2018-09-28T11:46:18.183Z,3032.00
2018-09-28T11:47:18.194Z,2576.00
2018-09-28T11:48:18.186Z,2384.00
2018-09-28T11:49:18.215Z,1812.00
2018-09-28T11:50:18.206Z,2308.00
2018-09-28T11:51:18.178Z,2008.00
2018-09-28T11:52:18.142Z,1956.00
2018-09-28T11:53:18.102Z,2204.00
2018-09-28T11:54:18.093Z,2560.00
2018-09-28T11:55:18.108Z,3064.00
2018-09-28T11:56:18.149Z,4148.00
2018-09-28T11:57:18.123Z,4308.00
2018-09-28T11:58:18.076Z,3496.00
2018-09-28T11:59:18.047Z,2464.00
2018-09-28T12:00:18.076Z,3152.00
2018-09-28T12:01:18.020Z,3156.00
2018-09-28T12:02:18.016Z,3112.00
2018-09-28T12:03:18.149Z,2228.00
2018-09-28T12:04:17.994Z,2240.00
2018-09-28T12:05:17.975Z,2768.00
2018-09-28T12:06:18.116Z,2672.00
2018-09-28T12:07:18.006Z,2948.00
2018-09-28T12:08:17.983Z,3408.00
2018-09-28T12:09:17.980Z,4036.00
2018-09-28T12:10:17.953Z,3844.00
2018-09-28T12:11:17.974Z,4000.00
2018-09-28T12:12:17.972Z,3656.00
2018-09-28T12:13:17.942Z,3160.00
2018-09-28T12:14:17.872Z,3504.00
2018-09-28T12:15:17.997Z,4332.00
2018-09-28T12:16:17.855Z,5192.00
2018-09-28T12:17:17.856Z,5788.00
2018-09-28T12:18:17.940Z,5912.00
2018-09-28T12:19:17.820Z,5304.00
2018-09-28T12:20:17.841Z,4836.00
2018-09-28T12:21:17.908Z,4876.00
2018-09-28T12:22:17.824Z,4064.00
2018-09-28T12:23:17.915Z,3660.00
2018-09-28T12:24:17.843Z,4148.00
2018-09-28T12:25:17.946Z,4124.00
2018-09-28T12:26:17.744Z,3740.00
2018-09-28T12:27:17.739Z,3012.00
2018-09-28T12:28:17.736Z,3488.00
2018-09-28T12:29:17.746Z,3192.00
2018-09-28T12:30:17.815Z,3024.00
2018-09-28T12:31:17.693Z,3744.00
2018-09-28T12:32:17.689Z,3320.00
2018-09-28T12:33:17.688Z,3088.00
2018-09-28T12:34:17.653Z,2760.00
2018-09-28T12:35:17.673Z,2444.00